Sioux Falls, SD

10:39 AM CST on February 09, 2016 (GMT -0600)
CTE Academy | | Change Station
CLOSE
Current Station
Personal Weather Station
Location: Sioux Falls, SD
Elevation: 1463 ft
Nearby Weather Stations

Elev 1463 ft 43.56 °N, 96.78 °W | Updated 5 seconds ago

Scattered Clouds
Scattered Clouds
12.6 °F
Feels Like -2 °F
N
13.4
Wind Variable Wind from WNW
Gusts 17.4 mph

Today
High -- | Low -- °F
--% Chance of Precip.
Yesterday
High -- | Low -- °F
Precip. -- in
Pressure 30.33 in
Visibility 10.0 miles
Clouds Scattered Clouds 6000 ft
Windchill -2 °F
Dew Point -3 °F
Humidity 50%
Rainfall 0.00 in
Snow Depth Not available.
7:34 AM 5:48 PM
New Moon, 2% visible
METAR KFSD 091556Z 33011KT 10SM SCT060 M12/M17 A3024 RMK AO2 SLP269 T11171172
Pressure 30.33 in
Visibility 10.0 miles
Clouds Scattered Clouds 6000 ft
Windchill -2 °F
Dew Point -3 °F
Humidity 50%
Rainfall 0.00 in
Snow Depth Not available.
7:34 AM 5:48 PM
New Moon, 2% visible
METAR KFSD 091556Z 33011KT 10SM SCT060 M12/M17 A3024 RMK AO2 SLP269 T11171172

10-Day Weather Forecast

Almanac

Astronomy

Feb. 09, 2016 Rise Set
Actual Time
Civil Twilight
Nautical Twilight
Astronomical Twilight
Moon
Length of Visible Light
Length of Day
Tomorrow will be .
, % of the Moon is Illuminated

Today's Extremes

State Highs State Lows

Community

WunderPhotos

Upload Photos

1,891,630 photos uploaded!

WunderBlog® & News

Nearby

Air Quality

  Air Quality AQ Index Pollutant
Not available.

Snow Depth

Station Depth Elevation

Earthquake Activity

City Distance Mag. Time & Date
Minimum magnitude displayed is 2.5.

Coastal Water Temperatures

Place Temperature

Stations

Nearby Weather Stations

Station Location Temp. Windchill Dew Point Humidity Wind Precip. Elev Updated Type
                   

Watches & Warnings

There are currently no watches in effect.